sensor_id;sensor_type;location;lat;lon;timestamp;P1;durP1;ratioP1;P2;durP2;ratioP2
37237;SDS011;23129;49.662;8.448;2022-12-07T00:01:44;9.10;;;6.03;;
37237;SDS011;23129;49.662;8.448;2022-12-07T00:04:14;9.25;;;5.85;;
37237;SDS011;23129;49.662;8.448;2022-12-07T00:06:44;10.05;;;5.95;;
37237;SDS011;23129;49.662;8.448;2022-12-07T00:09:19;8.05;;;5.40;;
37237;SDS011;23129;49.662;8.448;2022-12-07T00:11:48;10.07;;;5.72;;
37237;SDS011;23129;49.662;8.448;2022-12-07T00:14:17;10.73;;;6.35;;
37237;SDS011;23129;49.662;8.448;2022-12-07T00:16:48;15.02;;;6.35;;
37237;SDS011;23129;49.662;8.448;2022-12-07T00:19:17;14.05;;;7.00;;
37237;SDS011;23129;49.662;8.448;2022-12-07T00:21:46;12.57;;;6.60;;
37237;SDS011;23129;49.662;8.448;2022-12-07T00:24:15;11.77;;;6.15;;
37237;SDS011;23129;49.662;8.448;2022-12-07T00:26:45;10.50;;;6.25;;
37237;SDS011;23129;49.662;8.448;2022-12-07T00:29:15;9.68;;;5.93;;
37237;SDS011;23129;49.662;8.448;2022-12-07T00:31:46;14.98;;;5.85;;
37237;SDS011;23129;49.662;8.448;2022-12-07T00:34:16;7.82;;;5.10;;
37237;SDS011;23129;49.662;8.448;2022-12-07T00:36:46;7.75;;;5.22;;
37237;SDS011;23129;49.662;8.448;2022-12-07T00:39:15;9.13;;;5.18;;
37237;SDS011;23129;49.662;8.448;2022-12-07T00:41:45;11.27;;;6.10;;
37237;SDS011;23129;49.662;8.448;2022-12-07T00:44:13;11.52;;;6.35;;
37237;SDS011;23129;49.662;8.448;2022-12-07T00:46:42;8.18;;;5.18;;
37237;SDS011;23129;49.662;8.448;2022-12-07T00:49:11;8.18;;;5.28;;
37237;SDS011;23129;49.662;8.448;2022-12-07T00:51:39;11.63;;;6.68;;
37237;SDS011;23129;49.662;8.448;2022-12-07T00:54:08;9.48;;;5.32;;
37237;SDS011;23129;49.662;8.448;2022-12-07T00:56:37;10.73;;;5.90;;
37237;SDS011;23129;49.662;8.448;2022-12-07T00:59:07;7.50;;;5.15;;
37237;SDS011;23129;49.662;8.448;2022-12-07T01:01:39;13.55;;;6.35;;
37237;SDS011;23129;49.662;8.448;2022-12-07T01:04:08;10.07;;;6.25;;
37237;SDS011;23129;49.662;8.448;2022-12-07T01:06:37;11.40;;;6.00;;
37237;SDS011;23129;49.662;8.448;2022-12-07T01:09:06;10.68;;;6.20;;
37237;SDS011;23129;49.662;8.448;2022-12-07T01:11:34;12.77;;;6.15;;
37237;SDS011;23129;49.662;8.448;2022-12-07T01:14:03;10.40;;;5.55;;
37237;SDS011;23129;49.662;8.448;2022-12-07T01:16:33;10.02;;;5.78;;
37237;SDS011;23129;49.662;8.448;2022-12-07T01:19:01;9.05;;;5.00;;
37237;SDS011;23129;49.662;8.448;2022-12-07T01:21:32;9.52;;;5.40;;
37237;SDS011;23129;49.662;8.448;2022-12-07T01:24:04;14.82;;;6.60;;
37237;SDS011;23129;49.662;8.448;2022-12-07T01:26:36;11.43;;;6.18;;
37237;SDS011;23129;49.662;8.448;2022-12-07T01:29:05;12.45;;;6.07;;
37237;SDS011;23129;49.662;8.448;2022-12-07T01:31:35;13.25;;;6.20;;
37237;SDS011;23129;49.662;8.448;2022-12-07T01:34:03;11.38;;;6.00;;
37237;SDS011;23129;49.662;8.448;2022-12-07T01:36:32;8.30;;;5.35;;
37237;SDS011;23129;49.662;8.448;2022-12-07T01:39:04;10.93;;;5.70;;
37237;SDS011;23129;49.662;8.448;2022-12-07T01:41:35;10.88;;;6.30;;
37237;SDS011;23129;49.662;8.448;2022-12-07T01:44:11;15.13;;;7.57;;
37237;SDS011;23129;49.662;8.448;2022-12-07T01:46:44;13.82;;;6.63;;
37237;SDS011;23129;49.662;8.448;2022-12-07T01:49:16;16.73;;;6.93;;
37237;SDS011;23129;49.662;8.448;2022-12-07T01:51:51;13.45;;;6.28;;
37237;SDS011;23129;49.662;8.448;2022-12-07T01:54:26;13.18;;;5.88;;
37237;SDS011;23129;49.662;8.448;2022-12-07T01:56:54;10.55;;;5.47;;
37237;SDS011;23129;49.662;8.448;2022-12-07T01:59:25;17.58;;;5.93;;
37237;SDS011;23129;49.662;8.448;2022-12-07T02:01:55;13.48;;;6.95;;
37237;SDS011;23129;49.662;8.448;2022-12-07T02:04:24;10.88;;;6.53;;
37237;SDS011;23129;49.662;8.448;2022-12-07T02:06:52;13.75;;;7.25;;
37237;SDS011;23129;49.662;8.448;2022-12-07T02:09:22;15.52;;;5.97;;
37237;SDS011;23129;49.662;8.448;2022-12-07T02:11:51;11.23;;;6.68;;
37237;SDS011;23129;49.662;8.448;2022-12-07T02:14:21;9.93;;;5.82;;
37237;SDS011;23129;49.662;8.448;2022-12-07T02:16:53;8.82;;;4.70;;
37237;SDS011;23129;49.662;8.448;2022-12-07T02:22:51;8.18;;;5.20;;
37237;SDS011;23129;49.662;8.448;2022-12-07T02:29:19;11.32;;;6.65;;
37237;SDS011;23129;49.662;8.448;2022-12-07T02:34:34;13.30;;;4.75;;
37237;SDS011;23129;49.662;8.448;2022-12-07T02:37:14;10.80;;;6.45;;
37237;SDS011;23129;49.662;8.448;2022-12-07T02:39:57;13.00;;;7.20;;
37237;SDS011;23129;49.662;8.448;2022-12-07T02:45:06;16.83;;;8.35;;
37237;SDS011;23129;49.662;8.448;2022-12-07T02:47:38;14.65;;;6.60;;
37237;SDS011;23129;49.662;8.448;2022-12-07T02:50:08;10.65;;;5.82;;
37237;SDS011;23129;49.662;8.448;2022-12-07T02:52:38;15.77;;;8.43;;
37237;SDS011;23129;49.662;8.448;2022-12-07T02:55:06;14.40;;;6.60;;
37237;SDS011;23129;49.662;8.448;2022-12-07T02:57:42;11.52;;;6.57;;
37237;SDS011;23129;49.662;8.448;2022-12-07T03:00:30;11.07;;;6.07;;
37237;SDS011;23129;49.662;8.448;2022-12-07T03:03:06;9.88;;;5.68;;
37237;SDS011;23129;49.662;8.448;2022-12-07T03:05:46;17.17;;;7.03;;
37237;SDS011;23129;49.662;8.448;2022-12-07T03:08:29;12.18;;;6.75;;
37237;SDS011;23129;49.662;8.448;2022-12-07T03:11:06;15.45;;;7.82;;
37237;SDS011;23129;49.662;8.448;2022-12-07T03:13:38;13.18;;;6.85;;
37237;SDS011;23129;49.662;8.448;2022-12-07T03:16:14;12.57;;;5.70;;
37237;SDS011;23129;49.662;8.448;2022-12-07T03:18:46;13.63;;;6.25;;
37237;SDS011;23129;49.662;8.448;2022-12-07T03:21:20;13.30;;;6.25;;
37237;SDS011;23129;49.662;8.448;2022-12-07T03:23:53;9.73;;;5.30;;
37237;SDS011;23129;49.662;8.448;2022-12-07T03:26:28;13.43;;;6.70;;
37237;SDS011;23129;49.662;8.448;2022-12-07T03:29:02;10.38;;;6.53;;
37237;SDS011;23129;49.662;8.448;2022-12-07T03:31:37;13.05;;;7.18;;
37237;SDS011;23129;49.662;8.448;2022-12-07T03:34:11;9.70;;;6.20;;
37237;SDS011;23129;49.662;8.448;2022-12-07T03:36:44;9.20;;;5.43;;
37237;SDS011;23129;49.662;8.448;2022-12-07T03:39:19;12.43;;;7.00;;
37237;SDS011;23129;49.662;8.448;2022-12-07T03:41:52;11.20;;;5.95;;
37237;SDS011;23129;49.662;8.448;2022-12-07T03:44:22;15.30;;;7.13;;
37237;SDS011;23129;49.662;8.448;2022-12-07T03:46:55;14.60;;;6.15;;
37237;SDS011;23129;49.662;8.448;2022-12-07T03:49:31;13.52;;;6.20;;
37237;SDS011;23129;49.662;8.448;2022-12-07T03:52:09;9.00;;;5.68;;
37237;SDS011;23129;49.662;8.448;2022-12-07T03:54:48;9.30;;;5.43;;
37237;SDS011;23129;49.662;8.448;2022-12-07T03:57:23;9.52;;;5.50;;
37237;SDS011;23129;49.662;8.448;2022-12-07T03:59:53;10.45;;;6.25;;
37237;SDS011;23129;49.662;8.448;2022-12-07T04:02:25;7.50;;;5.45;;
37237;SDS011;23129;49.662;8.448;2022-12-07T04:04:55;9.57;;;5.68;;
37237;SDS011;23129;49.662;8.448;2022-12-07T04:07:24;9.82;;;6.15;;
37237;SDS011;23129;49.662;8.448;2022-12-07T04:09:52;10.82;;;6.32;;
37237;SDS011;23129;49.662;8.448;2022-12-07T04:12:21;8.50;;;5.68;;
37237;SDS011;23129;49.662;8.448;2022-12-07T04:14:50;12.43;;;4.93;;
37237;SDS011;23129;49.662;8.448;2022-12-07T04:17:18;10.82;;;5.80;;
37237;SDS011;23129;49.662;8.448;2022-12-07T04:19:48;12.60;;;6.13;;
37237;SDS011;23129;49.662;8.448;2022-12-07T04:22:16;8.45;;;5.15;;
37237;SDS011;23129;49.662;8.448;2022-12-07T04:24:45;14.50;;;6.50;;
37237;SDS011;23129;49.662;8.448;2022-12-07T04:27:13;7.55;;;5.15;;
37237;SDS011;23129;49.662;8.448;2022-12-07T04:29:42;12.68;;;5.45;;
37237;SDS011;23129;49.662;8.448;2022-12-07T04:32:10;9.23;;;5.03;;
37237;SDS011;23129;49.662;8.448;2022-12-07T04:34:38;10.13;;;3.90;;
37237;SDS011;23129;49.662;8.448;2022-12-07T04:37:09;8.63;;;4.97;;
37237;SDS011;23129;49.662;8.448;2022-12-07T04:39:37;7.50;;;5.40;;
37237;SDS011;23129;49.662;8.448;2022-12-07T04:42:05;11.32;;;5.72;;
37237;SDS011;23129;49.662;8.448;2022-12-07T04:44:34;14.13;;;6.75;;
37237;SDS011;23129;49.662;8.448;2022-12-07T04:47:03;9.57;;;5.63;;
37237;SDS011;23129;49.662;8.448;2022-12-07T04:49:31;8.18;;;4.82;;
37237;SDS011;23129;49.662;8.448;2022-12-07T04:52:00;6.65;;;4.45;;
37237;SDS011;23129;49.662;8.448;2022-12-07T04:54:30;8.50;;;4.88;;
37237;SDS011;23129;49.662;8.448;2022-12-07T04:56:58;8.88;;;4.50;;
37237;SDS011;23129;49.662;8.448;2022-12-07T04:59:26;7.40;;;4.53;;
37237;SDS011;23129;49.662;8.448;2022-12-07T05:01:55;10.90;;;5.57;;
37237;SDS011;23129;49.662;8.448;2022-12-07T05:04:24;8.98;;;4.88;;
37237;SDS011;23129;49.662;8.448;2022-12-07T05:06:52;9.35;;;5.40;;
37237;SDS011;23129;49.662;8.448;2022-12-07T05:09:20;14.90;;;6.10;;
37237;SDS011;23129;49.662;8.448;2022-12-07T05:11:50;10.50;;;6.32;;
37237;SDS011;23129;49.662;8.448;2022-12-07T05:14:19;10.13;;;4.80;;
37237;SDS011;23129;49.662;8.448;2022-12-07T05:16:49;12.38;;;5.30;;
37237;SDS011;23129;49.662;8.448;2022-12-07T05:19:19;8.25;;;4.63;;
37237;SDS011;23129;49.662;8.448;2022-12-07T05:21:48;6.20;;;4.65;;
37237;SDS011;23129;49.662;8.448;2022-12-07T05:24:17;17.88;;;5.88;;
37237;SDS011;23129;49.662;8.448;2022-12-07T05:26:45;12.18;;;6.10;;
37237;SDS011;23129;49.662;8.448;2022-12-07T05:29:15;8.90;;;4.22;;
37237;SDS011;23129;49.662;8.448;2022-12-07T05:31:44;8.48;;;5.50;;
37237;SDS011;23129;49.662;8.448;2022-12-07T05:34:13;8.60;;;4.95;;
37237;SDS011;23129;49.662;8.448;2022-12-07T05:36:42;9.70;;;4.95;;
37237;SDS011;23129;49.662;8.448;2022-12-07T05:39:10;12.02;;;6.20;;
37237;SDS011;23129;49.662;8.448;2022-12-07T05:41:39;8.73;;;5.38;;
37237;SDS011;23129;49.662;8.448;2022-12-07T05:44:26;9.27;;;5.50;;
37237;SDS011;23129;49.662;8.448;2022-12-07T05:46:55;15.40;;;6.20;;
37237;SDS011;23129;49.662;8.448;2022-12-07T05:49:23;13.90;;;6.35;;
37237;SDS011;23129;49.662;8.448;2022-12-07T05:51:52;14.30;;;7.60;;
37237;SDS011;23129;49.662;8.448;2022-12-07T05:54:20;13.38;;;6.38;;
37237;SDS011;23129;49.662;8.448;2022-12-07T05:56:49;10.85;;;5.20;;
37237;SDS011;23129;49.662;8.448;2022-12-07T05:59:18;11.73;;;5.95;;
37237;SDS011;23129;49.662;8.448;2022-12-07T06:01:55;16.70;;;6.43;;
37237;SDS011;23129;49.662;8.448;2022-12-07T06:04:27;7.90;;;5.50;;
37237;SDS011;23129;49.662;8.448;2022-12-07T06:06:57;11.48;;;5.68;;
37237;SDS011;23129;49.662;8.448;2022-12-07T06:09:27;11.18;;;5.50;;
37237;SDS011;23129;49.662;8.448;2022-12-07T06:11:56;8.15;;;4.93;;
37237;SDS011;23129;49.662;8.448;2022-12-07T06:14:42;12.23;;;7.00;;
37237;SDS011;23129;49.662;8.448;2022-12-07T06:17:13;12.20;;;6.60;;
37237;SDS011;23129;49.662;8.448;2022-12-07T06:19:42;11.88;;;6.22;;
37237;SDS011;23129;49.662;8.448;2022-12-07T06:22:11;9.77;;;5.70;;
37237;SDS011;23129;49.662;8.448;2022-12-07T06:24:40;11.35;;;4.70;;
37237;SDS011;23129;49.662;8.448;2022-12-07T06:27:09;8.95;;;4.95;;
37237;SDS011;23129;49.662;8.448;2022-12-07T06:29:37;8.45;;;5.43;;
37237;SDS011;23129;49.662;8.448;2022-12-07T06:32:06;15.80;;;7.13;;
37237;SDS011;23129;49.662;8.448;2022-12-07T06:34:36;12.98;;;6.35;;
37237;SDS011;23129;49.662;8.448;2022-12-07T06:37:05;28.88;;;11.52;;
37237;SDS011;23129;49.662;8.448;2022-12-07T06:39:33;27.45;;;13.98;;
37237;SDS011;23129;49.662;8.448;2022-12-07T06:42:02;17.40;;;6.72;;
37237;SDS011;23129;49.662;8.448;2022-12-07T06:44:30;16.48;;;7.03;;
37237;SDS011;23129;49.662;8.448;2022-12-07T06:46:59;13.63;;;7.07;;
37237;SDS011;23129;49.662;8.448;2022-12-07T06:49:49;12.10;;;7.57;;
37237;SDS011;23129;49.662;8.448;2022-12-07T06:52:18;13.32;;;6.80;;
37237;SDS011;23129;49.662;8.448;2022-12-07T06:54:46;13.45;;;8.02;;
37237;SDS011;23129;49.662;8.448;2022-12-07T06:57:14;9.95;;;5.78;;
37237;SDS011;23129;49.662;8.448;2022-12-07T06:59:43;9.35;;;6.28;;
37237;SDS011;23129;49.662;8.448;2022-12-07T07:02:11;12.65;;;6.13;;
37237;SDS011;23129;49.662;8.448;2022-12-07T07:04:39;11.40;;;5.72;;
37237;SDS011;23129;49.662;8.448;2022-12-07T07:07:09;9.90;;;5.63;;
37237;SDS011;23129;49.662;8.448;2022-12-07T07:09:37;8.95;;;6.28;;
37237;SDS011;23129;49.662;8.448;2022-12-07T07:12:06;11.15;;;6.30;;
37237;SDS011;23129;49.662;8.448;2022-12-07T07:14:34;13.15;;;4.97;;
37237;SDS011;23129;49.662;8.448;2022-12-07T07:17:03;11.75;;;6.80;;
37237;SDS011;23129;49.662;8.448;2022-12-07T07:19:32;12.35;;;6.68;;
37237;SDS011;23129;49.662;8.448;2022-12-07T07:22:00;12.15;;;5.85;;
37237;SDS011;23129;49.662;8.448;2022-12-07T07:24:30;18.63;;;7.82;;
37237;SDS011;23129;49.662;8.448;2022-12-07T07:26:58;14.10;;;7.45;;
37237;SDS011;23129;49.662;8.448;2022-12-07T07:29:27;10.48;;;6.40;;
37237;SDS011;23129;49.662;8.448;2022-12-07T07:31:55;10.40;;;6.40;;
37237;SDS011;23129;49.662;8.448;2022-12-07T07:34:31;11.05;;;6.30;;
37237;SDS011;23129;49.662;8.448;2022-12-07T07:37:00;13.88;;;7.10;;
37237;SDS011;23129;49.662;8.448;2022-12-07T07:39:30;13.25;;;6.57;;
37237;SDS011;23129;49.662;8.448;2022-12-07T07:41:58;12.05;;;6.82;;
37237;SDS011;23129;49.662;8.448;2022-12-07T07:44:28;15.90;;;7.20;;
37237;SDS011;23129;49.662;8.448;2022-12-07T07:47:00;15.55;;;7.18;;
37237;SDS011;23129;49.662;8.448;2022-12-07T07:49:30;16.20;;;7.00;;
37237;SDS011;23129;49.662;8.448;2022-12-07T07:51:59;11.43;;;6.85;;
37237;SDS011;23129;49.662;8.448;2022-12-07T07:54:27;11.30;;;6.47;;
37237;SDS011;23129;49.662;8.448;2022-12-07T07:56:57;12.77;;;6.93;;
37237;SDS011;23129;49.662;8.448;2022-12-07T07:59:25;13.40;;;6.97;;
37237;SDS011;23129;49.662;8.448;2022-12-07T08:01:54;12.57;;;7.03;;
37237;SDS011;23129;49.662;8.448;2022-12-07T08:04:22;19.50;;;8.48;;
37237;SDS011;23129;49.662;8.448;2022-12-07T08:06:52;14.23;;;7.72;;
37237;SDS011;23129;49.662;8.448;2022-12-07T08:09:20;16.52;;;8.32;;
37237;SDS011;23129;49.662;8.448;2022-12-07T08:11:49;14.07;;;8.32;;
37237;SDS011;23129;49.662;8.448;2022-12-07T08:14:19;15.05;;;8.70;;
37237;SDS011;23129;49.662;8.448;2022-12-07T08:16:47;18.50;;;8.75;;
37237;SDS011;23129;49.662;8.448;2022-12-07T08:19:16;11.15;;;7.45;;
37237;SDS011;23129;49.662;8.448;2022-12-07T08:21:44;17.98;;;8.70;;
37237;SDS011;23129;49.662;8.448;2022-12-07T08:24:13;12.82;;;7.32;;
37237;SDS011;23129;49.662;8.448;2022-12-07T08:26:42;18.60;;;7.70;;
37237;SDS011;23129;49.662;8.448;2022-12-07T08:29:10;16.17;;;8.43;;
37237;SDS011;23129;49.662;8.448;2022-12-07T08:31:40;15.73;;;9.38;;
37237;SDS011;23129;49.662;8.448;2022-12-07T08:34:09;14.00;;;7.53;;
37237;SDS011;23129;49.662;8.448;2022-12-07T08:36:38;17.13;;;8.48;;
37237;SDS011;23129;49.662;8.448;2022-12-07T08:39:07;17.13;;;7.85;;
37237;SDS011;23129;49.662;8.448;2022-12-07T08:41:56;18.30;;;9.25;;
37237;SDS011;23129;49.662;8.448;2022-12-07T08:44:24;13.75;;;9.05;;
37237;SDS011;23129;49.662;8.448;2022-12-07T08:46:55;24.90;;;9.35;;
37237;SDS011;23129;49.662;8.448;2022-12-07T08:49:30;17.80;;;9.50;;
37237;SDS011;23129;49.662;8.448;2022-12-07T08:52:02;20.08;;;8.30;;
37237;SDS011;23129;49.662;8.448;2022-12-07T08:54:33;14.32;;;8.20;;
37237;SDS011;23129;49.662;8.448;2022-12-07T08:57:03;13.77;;;7.68;;
37237;SDS011;23129;49.662;8.448;2022-12-07T08:59:32;19.45;;;7.72;;
37237;SDS011;23129;49.662;8.448;2022-12-07T09:02:05;13.10;;;7.63;;
37237;SDS011;23129;49.662;8.448;2022-12-07T09:04:34;14.73;;;8.23;;
37237;SDS011;23129;49.662;8.448;2022-12-07T09:07:02;17.73;;;9.05;;
37237;SDS011;23129;49.662;8.448;2022-12-07T09:09:31;15.95;;;7.45;;
37237;SDS011;23129;49.662;8.448;2022-12-07T09:12:00;16.75;;;8.88;;
37237;SDS011;23129;49.662;8.448;2022-12-07T09:14:28;21.20;;;9.60;;
37237;SDS011;23129;49.662;8.448;2022-12-07T09:17:05;18.35;;;9.00;;
37237;SDS011;23129;49.662;8.448;2022-12-07T09:19:34;21.20;;;10.15;;
37237;SDS011;23129;49.662;8.448;2022-12-07T09:22:03;17.48;;;8.00;;
37237;SDS011;23129;49.662;8.448;2022-12-07T09:24:32;14.40;;;8.35;;
37237;SDS011;23129;49.662;8.448;2022-12-07T09:27:01;14.77;;;8.38;;
37237;SDS011;23129;49.662;8.448;2022-12-07T09:29:29;21.23;;;8.48;;
37237;SDS011;23129;49.662;8.448;2022-12-07T09:31:58;15.82;;;7.40;;
37237;SDS011;23129;49.662;8.448;2022-12-07T09:34:33;15.85;;;8.30;;
37237;SDS011;23129;49.662;8.448;2022-12-07T09:37:02;16.70;;;8.60;;
37237;SDS011;23129;49.662;8.448;2022-12-07T09:39:30;18.85;;;7.47;;
37237;SDS011;23129;49.662;8.448;2022-12-07T09:41:59;22.73;;;9.18;;
37237;SDS011;23129;49.662;8.448;2022-12-07T09:44:32;18.45;;;10.93;;
37237;SDS011;23129;49.662;8.448;2022-12-07T09:47:01;18.20;;;9.38;;
37237;SDS011;23129;49.662;8.448;2022-12-07T09:49:30;12.25;;;8.25;;
37237;SDS011;23129;49.662;8.448;2022-12-07T09:52:02;18.90;;;7.57;;
37237;SDS011;23129;49.662;8.448;2022-12-07T09:54:46;12.93;;;7.88;;
37237;SDS011;23129;49.662;8.448;2022-12-07T09:57:17;15.10;;;8.07;;
37237;SDS011;23129;49.662;8.448;2022-12-07T09:59:48;14.02;;;7.93;;
37237;SDS011;23129;49.662;8.448;2022-12-07T10:02:22;18.25;;;8.55;;
37237;SDS011;23129;49.662;8.448;2022-12-07T10:05:00;16.25;;;7.95;;
37237;SDS011;23129;49.662;8.448;2022-12-07T10:07:31;15.05;;;8.93;;
37237;SDS011;23129;49.662;8.448;2022-12-07T10:10:02;17.70;;;8.02;;
37237;SDS011;23129;49.662;8.448;2022-12-07T10:12:42;14.20;;;7.70;;
37237;SDS011;23129;49.662;8.448;2022-12-07T10:15:40;11.98;;;7.28;;
37237;SDS011;23129;49.662;8.448;2022-12-07T10:18:20;15.85;;;8.48;;
37237;SDS011;23129;49.662;8.448;2022-12-07T10:21:03;19.08;;;8.95;;
37237;SDS011;23129;49.662;8.448;2022-12-07T10:23:59;16.98;;;7.90;;
37237;SDS011;23129;49.662;8.448;2022-12-07T10:26:31;13.88;;;7.70;;
37237;SDS011;23129;49.662;8.448;2022-12-07T10:29:02;19.77;;;9.32;;
37237;SDS011;23129;49.662;8.448;2022-12-07T10:31:43;14.05;;;6.75;;
37237;SDS011;23129;49.662;8.448;2022-12-07T10:34:20;13.60;;;6.57;;
37237;SDS011;23129;49.662;8.448;2022-12-07T10:36:53;10.30;;;6.28;;
37237;SDS011;23129;49.662;8.448;2022-12-07T10:39:44;10.57;;;5.50;;
37237;SDS011;23129;49.662;8.448;2022-12-07T10:42:16;10.85;;;5.03;;
37237;SDS011;23129;49.662;8.448;2022-12-07T10:44:47;9.38;;;5.47;;
37237;SDS011;23129;49.662;8.448;2022-12-07T10:47:25;10.32;;;5.32;;
37237;SDS011;23129;49.662;8.448;2022-12-07T10:53:13;11.52;;;5.13;;
37237;SDS011;23129;49.662;8.448;2022-12-07T10:56:21;7.78;;;4.20;;
37237;SDS011;23129;49.662;8.448;2022-12-07T10:59:17;7.38;;;4.03;;
37237;SDS011;23129;49.662;8.448;2022-12-07T11:02:15;8.30;;;4.53;;
37237;SDS011;23129;49.662;8.448;2022-12-07T11:05:00;7.03;;;4.32;;
37237;SDS011;23129;49.662;8.448;2022-12-07T11:07:41;3.75;;;2.72;;
37237;SDS011;23129;49.662;8.448;2022-12-07T11:10:24;6.13;;;2.45;;
37237;SDS011;23129;49.662;8.448;2022-12-07T11:13:15;3.55;;;1.75;;
37237;SDS011;23129;49.662;8.448;2022-12-07T11:16:08;5.00;;;1.25;;
37237;SDS011;23129;49.662;8.448;2022-12-07T11:18:54;1.92;;;1.40;;
37237;SDS011;23129;49.662;8.448;2022-12-07T11:21:43;2.30;;;1.45;;
37237;SDS011;23129;49.662;8.448;2022-12-07T11:24:23;4.47;;;1.77;;
37237;SDS011;23129;49.662;8.448;2022-12-07T11:27:05;3.08;;;1.75;;
37237;SDS011;23129;49.662;8.448;2022-12-07T11:29:50;3.25;;;1.98;;
37237;SDS011;23129;49.662;8.448;2022-12-07T11:32:37;2.07;;;1.70;;
37237;SDS011;23129;49.662;8.448;2022-12-07T11:35:21;2.08;;;1.58;;
37237;SDS011;23129;49.662;8.448;2022-12-07T11:38:01;1.38;;;1.20;;
37237;SDS011;23129;49.662;8.448;2022-12-07T11:40:39;3.40;;;1.20;;
37237;SDS011;23129;49.662;8.448;2022-12-07T11:43:15;2.95;;;1.48;;
37237;SDS011;23129;49.662;8.448;2022-12-07T11:45:54;2.38;;;1.40;;
37237;SDS011;23129;49.662;8.448;2022-12-07T11:48:29;2.67;;;1.92;;
37237;SDS011;23129;49.662;8.448;2022-12-07T11:51:02;1.65;;;1.35;;
37237;SDS011;23129;49.662;8.448;2022-12-07T11:53:35;1.80;;;1.40;;
37237;SDS011;23129;49.662;8.448;2022-12-07T11:56:12;1.35;;;1.25;;
37237;SDS011;23129;49.662;8.448;2022-12-07T11:58:47;2.63;;;2.10;;
37237;SDS011;23129;49.662;8.448;2022-12-07T12:01:26;3.78;;;1.90;;
37237;SDS011;23129;49.662;8.448;2022-12-07T12:04:22;1.73;;;1.30;;
37237;SDS011;23129;49.662;8.448;2022-12-07T12:07:00;2.88;;;1.52;;
37237;SDS011;23129;49.662;8.448;2022-12-07T12:09:51;1.92;;;1.40;;
37237;SDS011;23129;49.662;8.448;2022-12-07T12:12:27;4.57;;;2.33;;
37237;SDS011;23129;49.662;8.448;2022-12-07T12:15:37;5.55;;;2.17;;
37237;SDS011;23129;49.662;8.448;2022-12-07T12:21:13;4.22;;;2.30;;
37237;SDS011;23129;49.662;8.448;2022-12-07T12:23:45;4.18;;;2.15;;
37237;SDS011;23129;49.662;8.448;2022-12-07T12:26:20;3.47;;;2.35;;
37237;SDS011;23129;49.662;8.448;2022-12-07T12:28:52;4.05;;;2.33;;
37237;SDS011;23129;49.662;8.448;2022-12-07T12:31:34;1.65;;;1.52;;
37237;SDS011;23129;49.662;8.448;2022-12-07T12:46:44;4.85;;;1.33;;
37237;SDS011;23129;49.662;8.448;2022-12-07T12:52:49;1.95;;;1.15;;
37237;SDS011;23129;49.662;8.448;2022-12-07T12:58:40;2.03;;;1.10;;
37237;SDS011;23129;49.662;8.448;2022-12-07T13:04:21;2.83;;;1.33;;
37237;SDS011;23129;49.662;8.448;2022-12-07T13:07:01;5.05;;;1.50;;
37237;SDS011;23129;49.662;8.448;2022-12-07T13:09:30;3.05;;;1.30;;
37237;SDS011;23129;49.662;8.448;2022-12-07T13:12:03;2.35;;;1.52;;
37237;SDS011;23129;49.662;8.448;2022-12-07T13:14:56;6.90;;;2.45;;
37237;SDS011;23129;49.662;8.448;2022-12-07T13:20:54;7.10;;;2.75;;
37237;SDS011;23129;49.662;8.448;2022-12-07T13:23:27;4.93;;;2.45;;
37237;SDS011;23129;49.662;8.448;2022-12-07T13:26:09;5.82;;;2.78;;
37237;SDS011;23129;49.662;8.448;2022-12-07T13:28:44;4.80;;;2.80;;
37237;SDS011;23129;49.662;8.448;2022-12-07T13:34:26;6.93;;;2.55;;
37237;SDS011;23129;49.662;8.448;2022-12-07T13:36:58;5.35;;;2.40;;
37237;SDS011;23129;49.662;8.448;2022-12-07T13:39:29;6.13;;;2.30;;
37237;SDS011;23129;49.662;8.448;2022-12-07T13:42:06;3.95;;;2.13;;
37237;SDS011;23129;49.662;8.448;2022-12-07T13:44:52;6.00;;;2.63;;
37237;SDS011;23129;49.662;8.448;2022-12-07T13:47:23;3.10;;;1.83;;
37237;SDS011;23129;49.662;8.448;2022-12-07T13:50:00;5.55;;;2.40;;
37237;SDS011;23129;49.662;8.448;2022-12-07T13:52:29;3.25;;;2.10;;
37237;SDS011;23129;49.662;8.448;2022-12-07T13:54:59;11.20;;;2.83;;
37237;SDS011;23129;49.662;8.448;2022-12-07T13:57:36;3.78;;;2.63;;
37237;SDS011;23129;49.662;8.448;2022-12-07T14:00:06;3.00;;;2.08;;
37237;SDS011;23129;49.662;8.448;2022-12-07T14:02:54;2.90;;;2.65;;
37237;SDS011;23129;49.662;8.448;2022-12-07T14:05:27;5.18;;;2.33;;
37237;SDS011;23129;49.662;8.448;2022-12-07T14:07:58;2.25;;;2.03;;
37237;SDS011;23129;49.662;8.448;2022-12-07T14:10:31;5.93;;;2.60;;
37237;SDS011;23129;49.662;8.448;2022-12-07T14:13:02;9.75;;;2.40;;
37237;SDS011;23129;49.662;8.448;2022-12-07T14:15:54;10.93;;;2.55;;
37237;SDS011;23129;49.662;8.448;2022-12-07T14:18:25;3.60;;;2.15;;
37237;SDS011;23129;49.662;8.448;2022-12-07T14:21:04;5.00;;;2.38;;
37237;SDS011;23129;49.662;8.448;2022-12-07T14:23:41;2.80;;;2.35;;
37237;SDS011;23129;49.662;8.448;2022-12-07T14:26:11;11.93;;;2.80;;
37237;SDS011;23129;49.662;8.448;2022-12-07T14:28:41;7.05;;;2.08;;
37237;SDS011;23129;49.662;8.448;2022-12-07T14:31:11;5.90;;;2.03;;
37237;SDS011;23129;49.662;8.448;2022-12-07T14:33:50;3.75;;;1.75;;
37237;SDS011;23129;49.662;8.448;2022-12-07T14:36:20;5.88;;;2.60;;
37237;SDS011;23129;49.662;8.448;2022-12-07T14:38:48;4.70;;;2.70;;
37237;SDS011;23129;49.662;8.448;2022-12-07T14:41:19;4.00;;;2.40;;
37237;SDS011;23129;49.662;8.448;2022-12-07T14:44:08;4.70;;;2.50;;
37237;SDS011;23129;49.662;8.448;2022-12-07T14:46:58;4.95;;;2.05;;
37237;SDS011;23129;49.662;8.448;2022-12-07T14:49:47;3.85;;;2.28;;
37237;SDS011;23129;49.662;8.448;2022-12-07T14:52:17;4.40;;;2.25;;
37237;SDS011;23129;49.662;8.448;2022-12-07T14:55:12;6.00;;;2.80;;
37237;SDS011;23129;49.662;8.448;2022-12-07T14:57:46;5.07;;;2.60;;
37237;SDS011;23129;49.662;8.448;2022-12-07T15:00:15;5.18;;;2.15;;
37237;SDS011;23129;49.662;8.448;2022-12-07T15:02:45;3.60;;;3.08;;
37237;SDS011;23129;49.662;8.448;2022-12-07T15:05:14;5.47;;;2.28;;
37237;SDS011;23129;49.662;8.448;2022-12-07T15:07:45;6.25;;;2.00;;
37237;SDS011;23129;49.662;8.448;2022-12-07T15:10:16;6.00;;;2.28;;
37237;SDS011;23129;49.662;8.448;2022-12-07T15:12:50;9.50;;;2.42;;
37237;SDS011;23129;49.662;8.448;2022-12-07T15:15:18;4.70;;;2.72;;
37237;SDS011;23129;49.662;8.448;2022-12-07T15:17:47;4.40;;;2.53;;
37237;SDS011;23129;49.662;8.448;2022-12-07T15:20:15;4.95;;;2.38;;
37237;SDS011;23129;49.662;8.448;2022-12-07T15:22:45;2.35;;;2.15;;
37237;SDS011;23129;49.662;8.448;2022-12-07T15:25:14;4.18;;;2.80;;
37237;SDS011;23129;49.662;8.448;2022-12-07T15:27:42;8.20;;;2.65;;
37237;SDS011;23129;49.662;8.448;2022-12-07T15:30:11;5.15;;;3.10;;
37237;SDS011;23129;49.662;8.448;2022-12-07T15:32:40;6.93;;;3.58;;
37237;SDS011;23129;49.662;8.448;2022-12-07T15:35:09;4.93;;;2.85;;
37237;SDS011;23129;49.662;8.448;2022-12-07T15:37:37;2.83;;;2.15;;
37237;SDS011;23129;49.662;8.448;2022-12-07T15:40:07;3.45;;;1.33;;
37237;SDS011;23129;49.662;8.448;2022-12-07T15:42:37;1.88;;;1.33;;
37237;SDS011;23129;49.662;8.448;2022-12-07T15:45:07;6.03;;;1.95;;
37237;SDS011;23129;49.662;8.448;2022-12-07T15:47:36;9.48;;;1.67;;
37237;SDS011;23129;49.662;8.448;2022-12-07T15:50:27;2.38;;;1.92;;
37237;SDS011;23129;49.662;8.448;2022-12-07T15:52:55;2.63;;;1.48;;
37237;SDS011;23129;49.662;8.448;2022-12-07T15:55:25;12.70;;;2.88;;
37237;SDS011;23129;49.662;8.448;2022-12-07T15:57:53;7.45;;;2.90;;
37237;SDS011;23129;49.662;8.448;2022-12-07T16:00:22;3.10;;;1.83;;
37237;SDS011;23129;49.662;8.448;2022-12-07T16:02:51;3.63;;;1.83;;